Weather Melbourne :: Current Conditions and Historical Data

 
Daily Summary for November 25, 2014 Units:  Both    English   Metric
« Previous Day
Next Day »
Daily Weekly Monthly Yearly Custom
  Current: High: Low: Average:
Temperature: 64.7 °F /  18.2 °C 64.8 °F /  18.2 °C 48.8 °F /  9.3 °C 53.9 °F /  12.2 °C
Dew Point: 47.2 °F /  8.4 °C 50.7 °F /  10.4 °C 44.6 °F /  7 °C 46.9 °F /  8.3 °C
Humidity: 53 % 88 % 52 % 78 %
Wind Speed: 10.4 mph /  16.7 km/h 17.3 mph /  27.8 km/h - 7.3 mph /  11.7 km/h
Wind Gust: 10.4 mph /  16.7 km/h 17.3 mph /  27.8 km/h - -
Wind:SW - - WSW
Pressure: 30.07 in /  1018.2 hPa 30.09 in /  1018.8 hPa 29.94 in /  1013.8 hPa -
Precipitation: 0.01 in /  0.25 mm      
Melbourne, Australia Weather Graphs
 
 
Melbourne, current snapshot. Courtesy of citylink.com.au
Weather Melbourne

Melbourne Weather Radar




Weather in Melbourne, AU
Hourly Data for November 25, 2014
Time Temperature Dew Point Pressure Wind Wind Speed Wind Gust Humidity Rainfall Rate (Hourly) solar Conditions
00:00 52.4 °F /  11.3 °C 48.9 °F /  9.4 °C 29.94 in /  1013.8 hPa SW 3.5 mph /  5.6 km/h 3.5 mph /  5.6 km/h 88 % 0.00 in /  0 mm 0.0 W/m2 FEW
00:05 52.3 °F /  11.3 °C 48.9 °F /  9.4 °C 29.94 in /  1013.8 hPa SW 6.9 mph /  11.1 km/h 6.9 mph /  11.1 km/h 88 % 0.00 in /  0 mm 0.0 W/m2 FEW
00:10 52.1 °F /  11.2 °C 48.3 °F /  9.1 °C 29.94 in /  1013.8 hPa West 3.5 mph /  5.6 km/h 3.5 mph /  5.6 km/h 87 % 0.00 in /  0 mm 0.0 W/m2 FEW
00:15 52.0 °F /  11.1 °C 48.3 °F /  9.1 °C 29.94 in /  1013.8 hPa SW 6.0 mph /  9.7 km/h 6.0 mph /  9.7 km/h 87 % 0.00 in /  0 mm 0.0 W/m2 FEW
00:20 51.9 °F /  11.1 °C 47.8 °F /  8.8 °C 29.94 in /  1013.8 hPa SW 6.9 mph /  11.1 km/h 6.9 mph /  11.1 km/h 86 % 0.00 in /  0 mm 0.0 W/m2 CLR
00:26 51.9 °F /  11.1 °C 47.8 °F /  8.8 °C 29.94 in /  1013.8 hPa WSW 3.5 mph /  5.6 km/h 3.5 mph /  5.6 km/h 86 % 0.00 in /  0 mm 0.0 W/m2 CLR
00:31 51.8 °F /  11 °C 47.4 °F /  8.6 °C 29.94 in /  1013.8 hPa WSW 3.5 mph /  5.6 km/h 3.5 mph /  5.6 km/h 85 % 0.00 in /  0 mm 0.0 W/m2 CLR
00:36 51.8 °F /  11 °C 47.4 °F /  8.6 °C 29.94 in /  1013.8 hPa West 3.5 mph /  5.6 km/h 3.5 mph /  5.6 km/h 85 % 0.00 in /  0 mm 0.0 W/m2 CLR
00:41 51.7 °F /  10.9 °C 47.3 °F /  8.5 °C 29.94 in /  1013.8 hPa SSW 3.5 mph /  5.6 km/h 3.5 mph /  5.6 km/h 85 % 0.00 in /  0 mm 0.0 W/m2 CLR
00:46 51.7 °F /  10.9 °C 47.0 °F /  8.3 °C 29.95 in /  1014.1 hPa SW 3.5 mph /  5.6 km/h 3.5 mph /  5.6 km/h 84 % 0.00 in /  0 mm 0.0 W/m2 CLR
00:51 51.6 °F /  10.9 °C 46.9 °F /  8.3 °C 29.95 in /  1014.1 hPa West 5.8 mph /  9.3 km/h 5.8 mph /  9.3 km/h 84 % 0.00 in /  0 mm 0.0 W/m2 CLR
00:56 51.5 °F /  10.8 °C 46.8 °F /  8.2 °C 29.95 in /  1014.1 hPa West 3.0 mph /  4.8 km/h 3.0 mph /  4.8 km/h 84 % 0.00 in /  0 mm 0.0 W/m2 CLR
01:01 51.4 °F /  10.8 °C 46.7 °F /  8.2 °C 29.95 in /  1014.1 hPa WSW 4.6 mph /  7.4 km/h 4.6 mph /  7.4 km/h 84 % 0.00 in /  0 mm 0.0 W/m2 CLR
01:06 51.4 °F /  10.8 °C 46.7 °F /  8.2 °C 29.95 in /  1014.1 hPa West 3.5 mph /  5.6 km/h 3.5 mph /  5.6 km/h 84 % 0.00 in /  0 mm 0.0 W/m2 CLR
01:11 51.3 °F /  10.7 °C 46.6 °F /  8.1 °C 29.95 in /  1014.1 hPa West 7.0 mph /  11.3 km/h 7.0 mph /  11.3 km/h 84 % 0.00 in /  0 mm 0.0 W/m2 CLR
01:16 51.2 °F /  10.7 °C 46.5 °F /  8.1 °C 29.94 in /  1013.8 hPa WSW 6.9 mph /  11.1 km/h 6.9 mph /  11.1 km/h 84 % 0.00 in /  0 mm 0.0 W/m2 CLR
01:21 51.1 °F /  10.6 °C 46.4 °F /  8 °C 29.95 in /  1014.1 hPa West 8.1 mph /  13 km/h 8.1 mph /  13 km/h 84 % 0.00 in /  0 mm 0.0 W/m2 CLR
01:26 51.1 °F /  10.6 °C 46.4 °F /  8 °C 29.95 in /  1014.1 hPa West 6.9 mph /  11.1 km/h 6.9 mph /  11.1 km/h 84 % 0.00 in /  0 mm 0.0 W/m2 CLR
01:31 51.1 °F /  10.6 °C 46.4 °F /  8 °C 29.95 in /  1014.1 hPa West 5.8 mph /  9.3 km/h 5.8 mph /  9.3 km/h 84 % 0.00 in /  0 mm 0.0 W/m2 CLR
01:36 51.0 °F /  10.6 °C 46.6 °F /  8.1 °C 29.95 in /  1014.1 hPa WSW 6.9 mph /  11.1 km/h 6.9 mph /  11.1 km/h 85 % 0.00 in /  0 mm 0.0 W/m2 CLR
01:41 51.0 °F /  10.6 °C 46.6 °F /  8.1 °C 29.95 in /  1014.1 hPa West 7.0 mph /  11.3 km/h 7.0 mph /  11.3 km/h 85 % 0.00 in /  0 mm 0.0 W/m2 CLR
01:46 50.9 °F /  10.5 °C 46.6 °F /  8.1 °C 29.95 in /  1014.1 hPa West 9.2 mph /  14.8 km/h 9.2 mph /  14.8 km/h 85 % 0.00 in /  0 mm 0.0 W/m2 CLR
01:51 50.9 °F /  10.5 °C 46.6 °F /  8.1 °C 29.95 in /  1014.1 hPa West 9.2 mph /  14.8 km/h 9.2 mph /  14.8 km/h 85 % 0.00 in /  0 mm 0.0 W/m2 CLR
01:56 51.0 °F /  10.6 °C 46.6 °F /  8.1 °C 29.95 in /  1014.1 hPa West 9.2 mph /  14.8 km/h 9.2 mph /  14.8 km/h 85 % 0.00 in /  0 mm 0.0 W/m2 CLR
02:01 50.9 °F /  10.5 °C 46.6 °F /  8.1 °C 29.95 in /  1014.1 hPa WSW 6.9 mph /  11.1 km/h 6.9 mph /  11.1 km/h 85 % 0.00 in /  0 mm 0.0 W/m2 CLR
02:06 50.9 °F /  10.5 °C 46.6 °F /  8.1 °C 29.95 in /  1014.1 hPa WSW 6.9 mph /  11.1 km/h 6.9 mph /  11.1 km/h 85 % 0.00 in /  0 mm 0.0 W/m2 CLR
02:11 50.8 °F /  10.4 °C 46.5 °F /  8.1 °C 29.96 in /  1014.4 hPa WSW 6.9 mph /  11.1 km/h 6.9 mph /  11.1 km/h 85 % 0.00 in /  0 mm 0.0 W/m2 CLR
02:16 50.8 °F /  10.4 °C 46.5 °F /  8.1 °C 29.95 in /  1014.1 hPa WSW 6.9 mph /  11.1 km/h 6.9 mph /  11.1 km/h 85 % 0.00 in /  0 mm 0.0 W/m2 CLR
02:21 50.8 °F /  10.4 °C 46.5 °F /  8.1 °C 29.96 in /  1014.4 hPa West 3.5 mph /  5.6 km/h 3.5 mph /  5.6 km/h 85 % 0.00 in /  0 mm 0.0 W/m2 CLR
02:26 50.8 °F /  10.4 °C 46.5 °F /  8.1 °C 29.96 in /  1014.4 hPa West 5.8 mph /  9.3 km/h 5.8 mph /  9.3 km/h 85 % 0.00 in /  0 mm 0.0 W/m2 CLR
02:31 50.7 °F /  10.4 °C 46.4 °F /  8 °C 29.96 in /  1014.4 hPa WSW 8.1 mph /  13 km/h 8.1 mph /  13 km/h 85 % 0.00 in /  0 mm 0.0 W/m2 CLR
02:36 50.6 °F /  10.3 °C 46.3 °F /  7.9 °C 29.96 in /  1014.4 hPa West 4.6 mph /  7.4 km/h 4.6 mph /  7.4 km/h 85 % 0.00 in /  0 mm 0.0 W/m2 CLR
02:41 50.5 °F /  10.3 °C 46.2 °F /  7.9 °C 29.96 in /  1014.4 hPa West 2.3 mph /  3.7 km/h 2.3 mph /  3.7 km/h 85 % 0.00 in /  0 mm 0.0 W/m2 CLR
02:46 50.5 °F /  10.3 °C 46.2 °F /  7.9 °C 29.96 in /  1014.4 hPa West 8.0 mph /  12.9 km/h 8.0 mph /  12.9 km/h 85 % 0.00 in /  0 mm 0.0 W/m2 CLR
02:51 50.4 °F /  10.2 °C 46.1 °F /  7.8 °C 29.96 in /  1014.4 hPa WSW 5.8 mph /  9.3 km/h 5.8 mph /  9.3 km/h 85 % 0.00 in /  0 mm 0.0 W/m2 CLR
02:56 50.4 °F /  10.2 °C 46.1 °F /  7.8 °C 29.96 in /  1014.4 hPa WSW 6.0 mph /  9.7 km/h 6.0 mph /  9.7 km/h 85 % 0.00 in /  0 mm 0.0 W/m2 CLR
03:01 50.4 °F /  10.2 °C 46.1 °F /  7.8 °C 29.96 in /  1014.4 hPa WSW 5.8 mph /  9.3 km/h 5.8 mph /  9.3 km/h 85 % 0.00 in /  0 mm 0.0 W/m2 CLR
03:06 50.4 °F /  10.2 °C 46.1 °F /  7.8 °C 29.96 in /  1014.4 hPa WSW 9.2 mph /  14.8 km/h 9.2 mph /  14.8 km/h 85 % 0.00 in /  0 mm 0.0 W/m2 CLR
03:11 50.3 °F /  10.2 °C 46.0 °F /  7.8 °C 29.96 in /  1014.4 hPa WSW 3.5 mph /  5.6 km/h 3.5 mph /  5.6 km/h 85 % 0.00 in /  0 mm 0.0 W/m2 CLR
03:16 50.3 °F /  10.2 °C 46.0 °F /  7.8 °C 29.96 in /  1014.4 hPa WSW 5.8 mph /  9.3 km/h 5.8 mph /  9.3 km/h 85 % 0.00 in /  0 mm 0.0 W/m2 CLR
03:21 50.3 °F /  10.2 °C 45.6 °F /  7.6 °C 29.96 in /  1014.4 hPa WSW 8.1 mph /  13 km/h 8.1 mph /  13 km/h 84 % 0.00 in /  0 mm 0.0 W/m2 CLR
03:26 50.3 °F /  10.2 °C 45.6 °F /  7.6 °C 29.96 in /  1014.4 hPa West 3.5 mph /  5.6 km/h 3.5 mph /  5.6 km/h 84 % 0.00 in /  0 mm 0.0 W/m2 CLR
03:31 50.3 °F /  10.2 °C 45.6 °F /  7.6 °C 29.96 in /  1014.4 hPa WSW 6.9 mph /  11.1 km/h 6.9 mph /  11.1 km/h 84 % 0.00 in /  0 mm 0.0 W/m2 CLR
03:36 50.2 °F /  10.1 °C 45.6 °F /  7.6 °C 29.96 in /  1014.4 hPa West 2.0 mph /  3.2 km/h 2.0 mph /  3.2 km/h 84 % 0.00 in /  0 mm 0.0 W/m2 CLR
03:41 50.1 °F /  10.1 °C 45.5 °F /  7.5 °C 29.96 in /  1014.4 hPa West 5.8 mph /  9.3 km/h 5.8 mph /  9.3 km/h 84 % 0.00 in /  0 mm 0.0 W/m2 CLR
03:46 50.1 °F /  10.1 °C 45.5 °F /  7.5 °C 29.96 in /  1014.4 hPa West 5.8 mph /  9.3 km/h 5.8 mph /  9.3 km/h 84 % 0.00 in /  0 mm 0.0 W/m2 CLR
03:51 50.1 °F /  10.1 °C 45.5 °F /  7.5 °C 29.96 in /  1014.4 hPa West 9.2 mph /  14.8 km/h 9.2 mph /  14.8 km/h 84 % 0.00 in /  0 mm 0.0 W/m2 CLR
03:56 50.1 °F /  10.1 °C 45.5 °F /  7.5 °C 29.96 in /  1014.4 hPa WNW 8.1 mph /  13 km/h 8.1 mph /  13 km/h 84 % 0.00 in /  0 mm 0.0 W/m2 CLR
04:01 50.1 °F /  10.1 °C 45.5 °F /  7.5 °C 29.96 in /  1014.4 hPa WSW 6.9 mph /  11.1 km/h 6.9 mph /  11.1 km/h 84 % 0.00 in /  0 mm 0.0 W/m2 CLR
04:06 50.0 °F /  10 °C 45.4 °F /  7.4 °C 29.96 in /  1014.4 hPa WSW 8.1 mph /  13 km/h 8.1 mph /  13 km/h 84 % 0.00 in /  0 mm 0.0 W/m2 CLR
04:11 50.0 °F /  10 °C 45.4 °F /  7.4 °C 29.96 in /  1014.4 hPa West 6.9 mph /  11.1 km/h 6.9 mph /  11.1 km/h 84 % 0.00 in /  0 mm 0.0 W/m2 CLR
04:16 49.9 °F /  9.9 °C 45.3 °F /  7.4 °C 29.96 in /  1014.4 hPa West 6.9 mph /  11.1 km/h 6.9 mph /  11.1 km/h 84 % 0.00 in /  0 mm 0.0 W/m2 CLR
04:21 49.9 °F /  9.9 °C 45.3 °F /  7.4 °C 29.96 in /  1014.4 hPa WNW 2.3 mph /  3.7 km/h 2.3 mph /  3.7 km/h 84 % 0.00 in /  0 mm 0.0 W/m2 CLR
04:26 49.8 °F /  9.9 °C 45.2 °F /  7.3 °C 29.96 in /  1014.4 hPa West 3.5 mph /  5.6 km/h 3.5 mph /  5.6 km/h 84 % 0.00 in /  0 mm 0.0 W/m2 CLR
04:31 49.7 °F /  9.8 °C 45.1 °F /  7.3 °C 29.96 in /  1014.4 hPa WSW 3.5 mph /  5.6 km/h 3.5 mph /  5.6 km/h 84 % 0.00 in /  0 mm 0.0 W/m2 CLR
04:36 49.6 °F /  9.8 °C 45.0 °F /  7.2 °C 29.97 in /  1014.8 hPa West 4.6 mph /  7.4 km/h 4.6 mph /  7.4 km/h 84 % 0.00 in /  0 mm 0.0 W/m2 CLR
04:41 49.5 °F /  9.7 °C 44.9 °F /  7.2 °C 29.97 in /  1014.8 hPa West 5.8 mph /  9.3 km/h 5.8 mph /  9.3 km/h 84 % 0.00 in /  0 mm 0.0 W/m2 CLR
04:46 49.4 °F /  9.7 °C 45.1 °F /  7.3 °C 29.97 in /  1014.8 hPa West 6.0 mph /  9.7 km/h 6.0 mph /  9.7 km/h 85 % 0.00 in /  0 mm 0.0 W/m2 CLR
04:51 49.3 °F /  9.6 °C 45.0 °F /  7.2 °C 29.97 in /  1014.8 hPa West 5.8 mph /  9.3 km/h 5.8 mph /  9.3 km/h 85 % 0.00 in /  0 mm 0.0 W/m2 CLR
04:56 49.2 °F /  9.6 °C 44.9 °F /  7.2 °C 29.97 in /  1014.8 hPa West 3.5 mph /  5.6 km/h 3.5 mph /  5.6 km/h 85 % 0.00 in /  0 mm 0.0 W/m2 CLR
05:01 49.2 °F /  9.6 °C 44.9 °F /  7.2 °C 29.97 in /  1014.8 hPa West 6.0 mph /  9.7 km/h 6.0 mph /  9.7 km/h 85 % 0.00 in /  0 mm 0.0 W/m2 CLR
05:06 49.1 °F /  9.5 °C 44.8 °F /  7.1 °C 29.98 in /  1015.1 hPa West 5.8 mph /  9.3 km/h 5.8 mph /  9.3 km/h 85 % 0.00 in /  0 mm 0.0 W/m2 CLR
05:11 49.0 °F /  9.4 °C 44.7 °F /  7.1 °C 29.98 in /  1015.1 hPa WNW 2.3 mph /  3.7 km/h 2.3 mph /  3.7 km/h 85 % 0.00 in /  0 mm 0.0 W/m2 CLR
05:16 49.0 °F /  9.4 °C 44.7 °F /  7.1 °C 29.98 in /  1015.1 hPa WNW 2.3 mph /  3.7 km/h 2.3 mph /  3.7 km/h 85 % 0.00 in /  0 mm 0.0 W/m2 CLR
05:21 48.9 °F /  9.4 °C 44.6 °F /  7 °C 29.98 in /  1015.1 hPa WNW 3.5 mph /  5.6 km/h 3.5 mph /  5.6 km/h 85 % 0.00 in /  0 mm 0.0 W/m2 CLR
05:26 48.9 °F /  9.4 °C 44.6 °F /  7 °C 29.98 in /  1015.1 hPa West 3.5 mph /  5.6 km/h 3.5 mph /  5.6 km/h 85 % 0.00 in /  0 mm 0.0 W/m2 CLR
05:31 48.8 °F /  9.3 °C 44.8 °F /  7.1 °C 29.98 in /  1015.1 hPa WSW 7.0 mph /  11.3 km/h 7.0 mph /  11.3 km/h 86 % 0.00 in /  0 mm 0.0 W/m2 CLR
05:36 48.8 °F /  9.3 °C 44.8 °F /  7.1 °C 29.98 in /  1015.1 hPa West 6.9 mph /  11.1 km/h 6.9 mph /  11.1 km/h 86 % 0.00 in /  0 mm 0.0 W/m2 CLR
05:41 48.9 °F /  9.4 °C 44.9 °F /  7.2 °C 29.98 in /  1015.1 hPa WSW 6.9 mph /  11.1 km/h 6.9 mph /  11.1 km/h 86 % 0.00 in /  0 mm 0.0 W/m2 OVC
05:46 49.0 °F /  9.4 °C 45.0 °F /  7.2 °C 29.99 in /  1015.5 hPa West 9.2 mph /  14.8 km/h 9.2 mph /  14.8 km/h 86 % 0.00 in /  0 mm 0.0 W/m2 OVC
05:51 49.0 °F /  9.4 °C 44.7 °F /  7.1 °C 29.99 in /  1015.5 hPa West 3.5 mph /  5.6 km/h 4.4 mph /  7.1 km/h 85 % 0.00 in /  0 mm 0.0 W/m2 OVC
05:56 49.1 °F /  9.5 °C 44.8 °F /  7.1 °C 29.99 in /  1015.5 hPa West 7.0 mph /  11.3 km/h 7.0 mph /  11.3 km/h 85 % 0.00 in /  0 mm 0.0 W/m2 OVC
06:01 49.1 °F /  9.5 °C 45.1 °F /  7.3 °C 29.99 in /  1015.5 hPa WSW 5.8 mph /  9.3 km/h 5.8 mph /  9.3 km/h 86 % 0.00 in /  0 mm 5.0 W/m2 BKN
06:06 49.1 °F /  9.5 °C 45.1 °F /  7.3 °C 30.00 in /  1015.8 hPa West 5.8 mph /  9.3 km/h 5.8 mph /  9.3 km/h 86 % 0.00 in /  0 mm 9.0 W/m2 BKN
06:11 49.2 °F /  9.6 °C 44.9 °F /  7.2 °C 30.00 in /  1015.8 hPa WSW 6.9 mph /  11.1 km/h 6.9 mph /  11.1 km/h 85 % 0.00 in /  0 mm 11.0 W/m2 BKN
06:16 49.2 °F /  9.6 °C 45.2 °F /  7.3 °C 30.00 in /  1015.8 hPa SW 8.1 mph /  13 km/h 8.1 mph /  13 km/h 86 % 0.00 in /  0 mm 14.0 W/m2 BKN
06:21 49.2 °F /  9.6 °C 45.2 °F /  7.3 °C 30.00 in /  1015.8 hPa WSW 3.5 mph /  5.6 km/h 3.5 mph /  5.6 km/h 86 % 0.00 in /  0 mm 18.0 W/m2 BKN
06:26 49.3 °F /  9.6 °C 45.3 °F /  7.4 °C 30.00 in /  1015.8 hPa West 4.6 mph /  7.4 km/h 4.6 mph /  7.4 km/h 86 % 0.00 in /  0 mm 26.0 W/m2 BKN
06:31 49.4 °F /  9.7 °C 45.1 °F /  7.3 °C 30.00 in /  1015.8 hPa SW 5.8 mph /  9.3 km/h 5.8 mph /  9.3 km/h 85 % 0.00 in /  0 mm 25.0 W/m2 BKN
06:36 49.4 °F /  9.7 °C 45.1 °F /  7.3 °C 30.00 in /  1015.8 hPa West 3.0 mph /  4.8 km/h 3.0 mph /  4.8 km/h 85 % 0.00 in /  0 mm 26.0 W/m2 BKN
06:41 49.5 °F /  9.7 °C 45.2 °F /  7.3 °C 30.01 in /  1016.1 hPa SW 3.5 mph /  5.6 km/h 3.5 mph /  5.6 km/h 85 % 0.00 in /  0 mm 26.0 W/m2 BKN
06:46 49.6 °F /  9.8 °C 45.3 °F /  7.4 °C 30.01 in /  1016.1 hPa West 2.3 mph /  3.7 km/h 2.3 mph /  3.7 km/h 85 % 0.00 in /  0 mm 23.0 W/m2 BKN
06:51 49.6 °F /  9.8 °C 45.3 °F /  7.4 °C 30.02 in /  1016.5 hPa West 3.5 mph /  5.6 km/h 3.5 mph /  5.6 km/h 85 % 0.00 in /  0 mm 28.0 W/m2 BKN
06:56 49.7 °F /  9.8 °C 45.4 °F /  7.4 °C 30.02 in /  1016.5 hPa West 5.8 mph /  9.3 km/h 5.8 mph /  9.3 km/h 85 % 0.00 in /  0 mm 37.0 W/m2 BKN
07:01 49.7 °F /  9.8 °C 45.4 °F /  7.4 °C 30.02 in /  1016.5 hPa WSW 2.3 mph /  3.7 km/h 2.3 mph /  3.7 km/h 85 % 0.00 in /  0 mm 72.0 W/m2 BKN
07:06 49.8 °F /  9.9 °C 45.5 °F /  7.5 °C 30.02 in /  1016.5 hPa WNW 3.5 mph /  5.6 km/h 3.5 mph /  5.6 km/h 85 % 0.00 in /  0 mm 146.0 W/m2 SCT
07:11 50.0 °F /  10 °C 46.0 °F /  7.8 °C 30.03 in /  1016.8 hPa WSW 8.0 mph /  12.9 km/h 8.0 mph /  12.9 km/h 86 % 0.00 in /  0 mm 183.0 W/m2 SCT
07:16 50.3 °F /  10.2 °C 46.3 °F /  7.9 °C 30.03 in /  1016.8 hPa West 6.0 mph /  9.7 km/h 6.0 mph /  9.7 km/h 86 % 0.00 in /  0 mm 271.0 W/m2 FEW
07:21 50.7 °F /  10.4 °C 46.7 °F /  8.2 °C 30.03 in /  1016.8 hPa SW 5.8 mph /  9.3 km/h 5.8 mph /  9.3 km/h 86 % 0.00 in /  0 mm 165.0 W/m2 FEW
07:26 51.3 °F /  10.7 °C 47.3 °F /  8.5 °C 30.03 in /  1016.8 hPa WSW 8.1 mph /  13 km/h 8.1 mph /  13 km/h 86 % 0.00 in /  0 mm 132.0 W/m2 FEW
07:31 51.7 °F /  10.9 °C 47.3 °F /  8.5 °C 30.03 in /  1016.8 hPa WSW 6.9 mph /  11.1 km/h 6.9 mph /  11.1 km/h 85 % 0.00 in /  0 mm 113.0 W/m2 FEW
07:36 52.1 °F /  11.2 °C 47.7 °F /  8.7 °C 30.03 in /  1016.8 hPa WNW 10.4 mph /  16.7 km/h 10.4 mph /  16.7 km/h 85 % 0.00 in /  0 mm 91.0 W/m2 FEW
07:41 52.3 °F /  11.3 °C 47.6 °F /  8.7 °C 30.03 in /  1016.8 hPa West 9.2 mph /  14.8 km/h 9.2 mph /  14.8 km/h 84 % 0.00 in /  0 mm 343.0 W/m2 FEW
07:46 52.9 °F /  11.6 °C 48.2 °F /  9 °C 30.03 in /  1016.8 hPa SW 4.6 mph /  7.4 km/h 4.6 mph /  7.4 km/h 84 % 0.00 in /  0 mm 387.0 W/m2 FEW
07:52 53.4 °F /  11.9 °C 48.4 °F /  9.1 °C 30.04 in /  1017.2 hPa West 9.2 mph /  14.8 km/h 9.2 mph /  14.8 km/h 83 % 0.00 in /  0 mm 144.0 W/m2 FEW
07:57 53.8 °F /  12.1 °C 48.4 °F /  9.1 °C 30.04 in /  1017.2 hPa West 11.5 mph /  18.5 km/h 11.5 mph /  18.5 km/h 82 % 0.00 in /  0 mm 251.0 W/m2 FEW
08:02 54.2 °F /  12.3 °C 48.5 °F /  9.2 °C 30.04 in /  1017.2 hPa SW 10.4 mph /  16.7 km/h 10.4 mph /  16.7 km/h 81 % 0.00 in /  0 mm 339.0 W/m2 FEW
08:07 54.4 °F /  12.4 °C 48.4 °F /  9.1 °C 30.05 in /  1017.5 hPa West 7.0 mph /  11.3 km/h 7.0 mph /  11.3 km/h 80 % 0.00 in /  0 mm 134.0 W/m2 FEW
08:12 54.4 °F /  12.4 °C 48.0 °F /  8.9 °C 30.05 in /  1017.5 hPa South 6.9 mph /  11.1 km/h 6.9 mph /  11.1 km/h 79 % 0.00 in /  0 mm 144.0 W/m2 FEW
08:17 54.5 °F /  12.5 °C 48.1 °F /  8.9 °C 30.05 in /  1017.5 hPa West 10.0 mph /  16.1 km/h 10.0 mph /  16.1 km/h 79 % 0.00 in /  0 mm 287.0 W/m2 FEW
08:22 54.9 °F /  12.7 °C 48.8 °F /  9.3 °C 30.05 in /  1017.5 hPa WSW 10.0 mph /  16.1 km/h 10.0 mph /  16.1 km/h 80 % 0.00 in /  0 mm 443.0 W/m2 FEW
08:27 55.4 °F /  13 °C 49.0 °F /  9.4 °C 30.06 in /  1017.8 hPa WSW 6.9 mph /  11.1 km/h 6.9 mph /  11.1 km/h 79 % 0.00 in /  0 mm 454.0 W/m2 FEW
08:32 55.9 °F /  13.3 °C 48.8 °F /  9.3 °C 30.06 in /  1017.8 hPa SW 8.1 mph /  13 km/h 8.1 mph /  13 km/h 77 % 0.00 in /  0 mm 468.0 W/m2 FEW
08:37 56.4 °F /  13.6 °C 48.9 °F /  9.4 °C 30.06 in /  1017.8 hPa SW 7.0 mph /  11.3 km/h 7.0 mph /  11.3 km/h 76 % 0.00 in /  0 mm 485.0 W/m2 FEW
08:42 56.9 °F /  13.8 °C 49.1 °F /  9.5 °C 30.06 in /  1017.8 hPa West 12.7 mph /  20.4 km/h 12.7 mph /  20.4 km/h 75 % 0.00 in /  0 mm 508.0 W/m2 FEW
08:47 57.3 °F /  14.1 °C 49.1 °F /  9.5 °C 30.07 in /  1018.2 hPa West 6.9 mph /  11.1 km/h 6.9 mph /  11.1 km/h 74 % 0.00 in /  0 mm 531.0 W/m2 FEW
08:52 57.7 °F /  14.3 °C 49.1 °F /  9.5 °C 30.07 in /  1018.2 hPa SSW 11.0 mph /  17.7 km/h 11.0 mph /  17.7 km/h 73 % 0.00 in /  0 mm 573.0 W/m2 FEW
08:57 58.1 °F /  14.5 °C 49.5 °F /  9.7 °C 30.07 in /  1018.2 hPa WSW 11.5 mph /  18.5 km/h 11.5 mph /  18.5 km/h 73 % 0.00 in /  0 mm 603.0 W/m2 FEW
09:02 58.6 °F /  14.8 °C 49.6 °F /  9.8 °C 30.07 in /  1018.2 hPa SW 11.5 mph /  18.5 km/h 11.5 mph /  18.5 km/h 72 % 0.00 in /  0 mm 682.0 W/m2 RA
09:07 58.9 °F /  14.9 °C 49.1 °F /  9.5 °C 30.07 in /  1018.2 hPa SSW 7.0 mph /  11.3 km/h 7.0 mph /  11.3 km/h 70 % 0.00 in /  0 mm 301.0 W/m2 FEW
09:12 59.0 °F /  15 °C 49.2 °F /  9.6 °C 30.07 in /  1018.2 hPa SW 11.5 mph /  18.5 km/h 11.5 mph /  18.5 km/h 70 % 0.00 in /  0 mm 171.0 W/m2 FEW
09:17 58.7 °F /  14.8 °C 48.6 °F /  9.2 °C 30.07 in /  1018.2 hPa West 11.5 mph /  18.5 km/h 11.5 mph /  18.5 km/h 69 % 0.00 in /  0 mm 274.0 W/m2 BKN
09:22 58.4 °F /  14.7 °C 48.3 °F /  9.1 °C 30.07 in /  1018.2 hPa WNW 10.4 mph /  16.7 km/h 10.4 mph /  16.7 km/h 69 % 0.00 in /  0 mm 176.0 W/m2 BKN
09:27 58.2 °F /  14.6 °C 48.1 °F /  8.9 °C 30.08 in /  1018.5 hPa SSW 5.8 mph /  9.3 km/h 5.8 mph /  9.3 km/h 69 % 0.00 in /  0 mm 220.0 W/m2 BKN
09:32 58.3 °F /  14.6 °C 48.9 °F /  9.4 °C 30.08 in /  1018.5 hPa SSW 10.4 mph /  16.7 km/h 10.4 mph /  16.7 km/h 71 % 0.00 in /  0 mm 392.0 W/m2 BKN
09:37 58.8 °F /  14.9 °C 49.0 °F /  9.4 °C 30.08 in /  1018.5 hPa SW 10.4 mph /  16.7 km/h 10.4 mph /  16.7 km/h 70 % 0.00 in /  0 mm 195.0 W/m2 BKN
09:42 58.6 °F /  14.8 °C 48.1 °F /  8.9 °C 30.08 in /  1018.5 hPa SSW 12.0 mph /  19.3 km/h 12.0 mph /  19.3 km/h 68 % 0.00 in /  0 mm 188.0 W/m2 BKN
09:47 58.5 °F /  14.7 °C 48.4 °F /  9.1 °C 30.08 in /  1018.5 hPa SSW 17.3 mph /  27.8 km/h 17.3 mph /  27.8 km/h 69 % 0.00 in /  0 mm 803.0 W/m2 BKN
09:52 59.9 °F /  15.5 °C 49.3 °F /  9.6 °C 30.08 in /  1018.5 hPa SSW 11.5 mph /  18.5 km/h 11.5 mph /  18.5 km/h 68 % 0.00 in /  0 mm 881.0 W/m2 BKN
09:57 60.7 °F /  15.9 °C 48.9 °F /  9.4 °C 30.08 in /  1018.5 hPa WSW 6.9 mph /  11.1 km/h 6.9 mph /  11.1 km/h 65 % 0.00 in /  0 mm 548.0 W/m2 BKN
10:02 60.7 °F /  15.9 °C 48.9 °F /  9.4 °C 30.08 in /  1018.5 hPa West 12.7 mph /  20.4 km/h 12.7 mph /  20.4 km/h 65 % 0.00 in /  0 mm 548.0 W/m2 SCT
10:07 60.7 °F /  15.9 °C 49.3 °F /  9.6 °C 30.08 in /  1018.5 hPa WSW 15.0 mph /  24.1 km/h 15.0 mph /  24.1 km/h 66 % 0.00 in /  0 mm 149.0 W/m2 SCT
10:12 60.2 °F /  15.7 °C 50.4 °F /  10.2 °C 30.09 in /  1018.8 hPa SW 6.9 mph /  11.1 km/h 6.9 mph /  11.1 km/h 70 % 0.00 in /  0 mm 220.0 W/m2 SCT
10:17 59.3 °F /  15.2 °C 49.5 °F /  9.7 °C 30.08 in /  1018.5 hPa SW 13.8 mph /  22.2 km/h 13.8 mph /  22.2 km/h 70 % 0.00 in /  0 mm 246.0 W/m2 SCT
10:22 58.8 °F /  14.9 °C 49.0 °F /  9.4 °C 30.09 in /  1018.8 hPa WSW 10.4 mph /  16.7 km/h 10.4 mph /  16.7 km/h 70 % 0.00 in /  0 mm 359.0 W/m2 SCT
10:27 59.3 °F /  15.2 °C 49.9 °F /  9.9 °C 30.09 in /  1018.8 hPa SW 9.2 mph /  14.8 km/h 9.2 mph /  14.8 km/h 71 % 0.01 in /  0.25 mm 373.0 W/m2 RA
10:32 60.5 °F /  15.8 °C 50.7 °F /  10.4 °C 30.08 in /  1018.5 hPa SW 8.1 mph /  13 km/h 8.1 mph /  13 km/h 70 % 0.01 in /  0.25 mm 1065.0 W/m2 SCT
10:37 61.7 °F /  16.5 °C 50.2 °F /  10.1 °C 30.08 in /  1018.5 hPa NW 11.5 mph /  18.5 km/h 11.5 mph /  18.5 km/h 66 % 0.01 in /  0.25 mm 960.0 W/m2 SCT
10:42 62.3 °F /  16.8 °C 49.1 °F /  9.5 °C 30.08 in /  1018.5 hPa SW 10.4 mph /  16.7 km/h 10.4 mph /  16.7 km/h 62 % 0.01 in /  0.25 mm 789.0 W/m2 SCT
10:47 62.5 °F /  16.9 °C 48.9 °F /  9.4 °C 30.08 in /  1018.5 hPa WSW 11.5 mph /  18.5 km/h 11.5 mph /  18.5 km/h 61 % 0.01 in /  0.25 mm 202.0 W/m2 SCT
10:52 61.8 °F /  16.6 °C 47.8 °F /  8.8 °C 30.08 in /  1018.5 hPa SW 11.5 mph /  18.5 km/h 11.5 mph /  18.5 km/h 60 % 0.01 in /  0.25 mm 236.0 W/m2 SCT
10:57 62.6 °F /  17 °C 48.5 °F /  9.2 °C 30.08 in /  1018.5 hPa WSW 16.1 mph /  25.9 km/h 16.1 mph /  25.9 km/h 60 % 0.01 in /  0.25 mm 1005.0 W/m2 SCT
11:02 64.3 °F /  17.9 °C 49.2 °F /  9.6 °C 30.08 in /  1018.5 hPa SW 11.5 mph /  18.5 km/h 11.5 mph /  18.5 km/h 58 % 0.01 in /  0.25 mm 1127.0 W/m2 SCT
11:07 63.9 °F /  17.7 °C 48.4 °F /  9.1 °C 30.08 in /  1018.5 hPa SSW 12.7 mph /  20.4 km/h 12.7 mph /  20.4 km/h 57 % 0.01 in /  0.25 mm 183.0 W/m2 SCT
11:12 63.6 °F /  17.6 °C 48.5 °F /  9.2 °C 30.08 in /  1018.5 hPa SW 9.2 mph /  14.8 km/h 9.2 mph /  14.8 km/h 58 % 0.01 in /  0.25 mm 262.0 W/m2 SCT
11:17 63.2 °F /  17.3 °C 47.2 °F /  8.4 °C 30.08 in /  1018.5 hPa WSW 8.1 mph /  13 km/h 8.1 mph /  13 km/h 56 % 0.01 in /  0.25 mm 255.0 W/m2 SCT
11:22 62.7 °F /  17.1 °C 47.2 °F /  8.4 °C 30.08 in /  1018.5 hPa SW 15.0 mph /  24.1 km/h 15.0 mph /  24.1 km/h 57 % 0.01 in /  0.25 mm 378.0 W/m2 SCT
11:27 62.5 °F /  16.9 °C 46.6 °F /  8.1 °C 30.08 in /  1018.5 hPa SW 6.9 mph /  11.1 km/h 6.9 mph /  11.1 km/h 56 % 0.00 in /  0 mm 403.0 W/m2 SCT
11:32 63.0 °F /  17.2 °C 47.1 °F /  8.4 °C 30.08 in /  1018.5 hPa WSW 11.5 mph /  18.5 km/h 11.5 mph /  18.5 km/h 56 % 0.00 in /  0 mm 1288.0 W/m2 SCT
11:37 63.1 °F /  17.3 °C 46.7 °F /  8.2 °C 30.08 in /  1018.5 hPa SW 6.9 mph /  11.1 km/h 6.9 mph /  11.1 km/h 55 % 0.00 in /  0 mm 257.0 W/m2 SCT
11:42 62.9 °F /  17.2 °C 46.5 °F /  8.1 °C 30.08 in /  1018.5 hPa SSW 9.2 mph /  14.8 km/h 9.2 mph /  14.8 km/h 55 % 0.00 in /  0 mm 236.0 W/m2 SCT
11:47 63.9 °F /  17.7 °C 47.9 °F /  8.8 °C 30.08 in /  1018.5 hPa SSW 10.4 mph /  16.7 km/h 10.4 mph /  16.7 km/h 56 % 0.00 in /  0 mm 1257.0 W/m2 SCT
11:52 64.6 °F /  18.1 °C 46.6 °F /  8.1 °C 30.08 in /  1018.5 hPa West 9.2 mph /  14.8 km/h 9.2 mph /  14.8 km/h 52 % 0.00 in /  0 mm 355.0 W/m2 SCT
11:57 64.1 °F /  17.8 °C 46.1 °F /  7.8 °C 30.08 in /  1018.5 hPa WSW 7.0 mph /  11.3 km/h 7.0 mph /  11.3 km/h 52 % 0.00 in /  0 mm 299.0 W/m2 SCT
12:02 63.9 °F /  17.7 °C 47.4 °F /  8.6 °C 30.08 in /  1018.5 hPa SW 11.5 mph /  18.5 km/h 11.5 mph /  18.5 km/h 55 % 0.00 in /  0 mm 357.0 W/m2 BKN
12:07 64.4 °F /  18 °C 46.9 °F /  8.3 °C 30.08 in /  1018.5 hPa WSW 5.8 mph /  9.3 km/h 5.8 mph /  9.3 km/h 53 % 0.00 in /  0 mm 1259.0 W/m2 BKN
12:12 64.8 °F /  18.2 °C 47.8 °F /  8.8 °C 30.08 in /  1018.5 hPa SSW 8.1 mph /  13 km/h 8.1 mph /  13 km/h 54 % 0.00 in /  0 mm 304.0 W/m2 BKN
12:17 64.8 °F /  18.2 °C 47.3 °F /  8.5 °C 30.08 in /  1018.5 hPa SW 10.4 mph /  16.7 km/h 10.4 mph /  16.7 km/h 53 % 0.00 in /  0 mm 362.0 W/m2 BKN
12:22 64.7 °F /  18.2 °C 47.2 °F /  8.4 °C 30.07 in /  1018.2 hPa SW 10.4 mph /  16.7 km/h 10.4 mph /  16.7 km/h 53 % 0.00 in /  0 mm 241.0 W/m2 BKN
Melbourne Forecast
About Melbourne | City of Melbourne official website